Time;durP1;ratioP1;P1;durP2;ratioP2;P2;SDS_P1;SDS_P2;PMS_P1;PMS_P2;Temp;Humidity;BMP_temperature;BMP_pressure;BME280_temperature;BME280_humidity;BME280_pressure;Samples;Min_cycle;Max_cycle;Signal;HPM_P1;HPM_P2
2021/06/30 00:00:22;;;;;;;9.05;8.20;;;23.00;83.80;;;;;;5064940;28;20178;-75
2021/06/30 00:02:48;;;;;;;11.98;8.15;;;23.00;84.90;;;;;;5064562;28;20254;-75
2021/06/30 00:05:14;;;;;;;14.73;8.10;;;23.00;84.00;;;;;;5082225;28;20234;-75
2021/06/30 00:07:39;;;;;;;11.73;7.95;;;22.90;83.90;;;;;;5064120;28;20963;-76
2021/06/30 00:10:08;;;;;;;9.73;8.25;;;23.00;84.10;;;;;;5066154;28;20568;-75
2021/06/30 00:12:34;;;;;;;9.00;8.18;;;22.90;84.80;;;;;;5067125;28;20187;-75
2021/06/30 00:15:01;;;;;;;9.60;8.60;;;22.90;84.20;;;;;;5065515;28;20200;-75
2021/06/30 00:17:27;;;;;;;10.30;8.40;;;22.90;84.20;;;;;;5060332;28;20187;-75
2021/06/30 00:19:52;;;;;;;8.98;8.07;;;22.80;84.20;;;;;;5080898;28;20194;-75
2021/06/30 00:22:19;;;;;;;9.25;7.80;;;22.80;84.30;;;;;;5066297;28;20186;-75
2021/06/30 00:24:44;;;;;;;8.98;8.18;;;22.80;84.30;;;;;;5067243;28;20179;-74
2021/06/30 00:27:10;;;;;;;9.45;8.45;;;22.80;84.50;;;;;;5066944;28;20206;-75
2021/06/30 00:29:36;;;;;;;9.27;8.45;;;22.80;84.50;;;;;;5065069;28;20182;-75
2021/06/30 00:32:01;;;;;;;9.30;8.38;;;22.80;84.50;;;;;;5066119;28;20243;-75
2021/06/30 00:34:27;;;;;;;10.20;8.52;;;22.70;84.50;;;;;;5066199;28;20182;-74
2021/06/30 00:36:53;;;;;;;8.50;7.65;;;22.70;84.40;;;;;;5064477;28;20186;-74
2021/06/30 00:39:20;;;;;;;9.80;8.10;;;22.70;84.50;;;;;;5067235;28;20179;-74
2021/06/30 00:41:46;;;;;;;10.15;8.68;;;22.60;84.50;;;;;;5064919;28;20695;-75
2021/06/30 00:44:12;;;;;;;9.60;7.75;;;22.60;85.00;;;;;;5061465;28;20182;-74
2021/06/30 00:46:38;;;;;;;9.10;8.10;;;22.60;84.70;;;;;;5066605;28;20272;-75
2021/06/30 00:49:07;;;;;;;8.50;7.70;;;22.60;85.20;;;;;;5065617;28;20183;-75
2021/06/30 00:51:33;;;;;;;11.18;7.75;;;22.60;84.80;;;;;;5068312;28;20202;-75
2021/06/30 00:53:59;;;;;;;11.93;8.25;;;22.50;85.30;;;;;;5069852;28;20185;-75
2021/06/30 00:56:27;;;;;;;12.93;8.20;;;22.50;85.00;;;;;;5067759;28;20241;-75
2021/06/30 00:58:58;;;;;;;10.40;8.00;;;22.50;85.20;;;;;;5069317;28;20299;-75
2021/06/30 01:01:24;;;;;;;9.30;8.30;;;22.50;85.00;;;;;;5069851;28;20179;-75
2021/06/30 01:03:51;;;;;;;14.07;8.15;;;22.50;85.40;;;;;;5064721;28;20581;-75
2021/06/30 01:06:18;;;;;;;9.25;8.00;;;22.50;85.50;;;;;;5070213;28;20270;-74
2021/06/30 01:08:44;;;;;;;9.05;8.25;;;22.50;85.50;;;;;;5066244;28;20186;-75
2021/06/30 01:11:11;;;;;;;8.70;7.90;;;22.50;85.50;;;;;;5069469;28;20186;-74
2021/06/30 01:13:38;;;;;;;8.90;8.00;;;22.50;85.60;;;;;;5063218;28;20732;-74
2021/06/30 01:16:04;;;;;;;10.57;8.27;;;22.50;85.60;;;;;;5069885;28;20206;-75
2021/06/30 01:18:32;;;;;;;9.25;8.05;;;22.50;85.50;;;;;;5071151;28;20190;-74
2021/06/30 01:21:00;;;;;;;9.27;8.05;;;22.50;85.40;;;;;;5084349;28;20672;-75
2021/06/30 01:23:26;;;;;;;9.38;8.18;;;22.50;85.30;;;;;;5066679;28;20187;-76
2021/06/30 01:25:53;;;;;;;8.50;7.70;;;22.40;85.40;;;;;;5063938;28;20186;-76
2021/06/30 01:28:20;;;;;;;8.57;7.75;;;22.40;85.30;;;;;;5070681;28;20206;-75
2021/06/30 01:30:49;;;;;;;9.52;8.10;;;22.40;85.60;;;;;;5069494;28;20637;-75
2021/06/30 01:33:15;;;;;;;9.10;7.63;;;22.40;85.60;;;;;;5068254;28;20243;-75
2021/06/30 01:35:41;;;;;;;8.18;7.57;;;22.40;85.50;;;;;;5068237;28;20213;-75
2021/06/30 01:38:07;;;;;;;9.20;8.30;;;22.30;85.60;;;;;;5067548;28;20193;-75
2021/06/30 01:40:33;;;;;;;10.25;8.65;;;22.30;85.80;;;;;;5070437;28;20187;-75
2021/06/30 01:42:59;;;;;;;8.65;7.75;;;22.30;85.80;;;;;;5067585;28;20191;-75
2021/06/30 01:45:26;;;;;;;8.57;7.57;;;22.30;87.10;;;;;;5067612;28;20194;-75
2021/06/30 01:47:52;;;;;;;9.18;8.13;;;22.30;85.80;;;;;;5066114;28;20301;-75
2021/06/30 01:50:18;;;;;;;10.20;7.07;;;22.20;86.00;;;;;;5069651;28;20182;-74
2021/06/30 01:52:45;;;;;;;8.25;7.57;;;22.20;85.90;;;;;;5070235;28;20187;-75
2021/06/30 01:55:13;;;;;;;9.65;7.28;;;22.20;85.80;;;;;;5069296;28;20183;-75
2021/06/30 01:57:41;;;;;;;8.20;7.10;;;22.20;86.10;;;;;;5066213;28;20233;-75
2021/06/30 02:00:08;;;;;;;8.15;7.20;;;22.10;85.50;;;;;;5068372;28;20175;-75
2021/06/30 02:02:34;;;;;;;7.97;7.28;;;22.10;85.60;;;;;;5067961;28;20190;-74
2021/06/30 02:05:12;;;;;;;8.15;7.45;;;22.10;85.60;;;;;;5066395;28;20585;-74
2021/06/30 02:07:38;;;;;;;7.80;7.05;;;22.10;85.50;;;;;;5069237;28;20221;-75
2021/06/30 02:10:09;;;;;;;8.23;7.53;;;22.10;85.90;;;;;;5066602;28;20577;-75
2021/06/30 02:12:36;;;;;;;9.70;7.78;;;22.00;85.60;;;;;;5070276;28;20614;-75
2021/06/30 02:15:08;;;;;;;9.95;7.13;;;22.00;85.90;;;;;;5084689;28;20213;-75
2021/06/30 02:17:34;;;;;;;8.13;7.43;;;22.00;85.50;;;;;;5068936;28;20625;-75
2021/06/30 02:19:59;;;;;;;10.68;7.95;;;22.00;86.10;;;;;;5055626;28;20218;-74
2021/06/30 02:22:26;;;;;;;7.32;6.72;;;21.90;86.10;;;;;;5067715;28;20238;-75
2021/06/30 02:24:55;;;;;;;7.63;6.90;;;21.90;86.20;;;;;;5065485;28;20179;-74
2021/06/30 02:27:21;;;;;;;8.52;7.65;;;21.90;86.10;;;;;;5064059;28;20219;-75
2021/06/30 02:29:46;;;;;;;8.18;7.28;;;21.90;86.20;;;;;;5081644;28;20189;-74
2021/06/30 02:32:12;;;;;;;9.05;8.15;;;21.90;86.20;;;;;;5069864;28;20225;-75
2021/06/30 02:34:38;;;;;;;7.88;7.00;;;21.90;86.40;;;;;;5069415;28;20183;-74
2021/06/30 02:37:04;;;;;;;7.40;6.85;;;21.90;86.50;;;;;;5069023;28;20483;-75
2021/06/30 02:39:30;;;;;;;10.25;7.43;;;21.90;86.50;;;;;;5064551;28;20728;-75
2021/06/30 02:41:55;;;;;;;10.05;7.18;;;21.90;86.60;;;;;;5068167;28;20259;-75
2021/06/30 02:44:21;;;;;;;8.57;7.75;;;21.90;86.80;;;;;;5066701;28;20672;-75
2021/06/30 02:46:47;;;;;;;11.13;8.65;;;21.90;86.90;;;;;;5066560;28;20716;-74
2021/06/30 02:49:13;;;;;;;10.23;8.73;;;21.90;86.90;;;;;;5064707;28;20244;-75
2021/06/30 02:51:38;;;;;;;9.77;8.77;;;21.90;87.10;;;;;;5069176;28;20186;-74
2021/06/30 02:54:04;;;;;;;10.27;9.32;;;21.90;87.10;;;;;;5067610;28;20183;-75
2021/06/30 02:56:30;;;;;;;9.82;9.02;;;21.90;87.40;;;;;;5064524;28;20198;-75
2021/06/30 02:58:55;;;;;;;10.85;8.60;;;21.90;87.40;;;;;;5065321;28;20190;-75
2021/06/30 03:01:21;;;;;;;11.82;8.93;;;21.90;87.20;;;;;;5066439;28;20664;-75
2021/06/30 03:03:47;;;;;;;9.25;8.30;;;22.00;87.20;;;;;;5066655;28;20742;-75
2021/06/30 03:06:12;;;;;;;14.35;8.70;;;21.90;87.20;;;;;;5068002;28;20580;-75
2021/06/30 03:08:38;;;;;;;8.98;7.47;;;21.90;87.20;;;;;;5062508;28;20300;-74
2021/06/30 03:11:04;;;;;;;9.25;8.43;;;22.00;87.00;;;;;;5063448;28;20566;-74
2021/06/30 03:13:30;;;;;;;10.90;7.60;;;22.00;87.30;;;;;;5067319;28;20262;-74
2021/06/30 03:15:55;;;;;;;9.18;8.20;;;22.00;87.30;;;;;;5076632;28;20275;-74
2021/06/30 03:18:21;;;;;;;12.43;8.73;;;22.00;87.40;;;;;;5071727;28;20183;-74
2021/06/30 03:20:47;;;;;;;8.88;7.97;;;22.00;87.40;;;;;;5066212;28;20179;-74
2021/06/30 03:23:13;;;;;;;8.90;7.88;;;22.00;87.40;;;;;;5063852;28;20755;-74
2021/06/30 03:25:39;;;;;;;9.10;8.30;;;22.00;87.20;;;;;;5065923;28;20664;-75
2021/06/30 03:28:06;;;;;;;10.10;8.23;;;22.00;87.30;;;;;;5067998;28;20218;-75
2021/06/30 03:30:34;;;;;;;8.82;8.05;;;22.00;87.30;;;;;;5068440;28;20182;-74
2021/06/30 03:33:00;;;;;;;8.52;7.80;;;22.00;87.40;;;;;;5067579;28;20174;-74
2021/06/30 03:35:26;;;;;;;11.20;8.65;;;22.00;87.40;;;;;;5070165;28;20191;-74
2021/06/30 03:37:51;;;;;;;8.77;7.93;;;22.00;87.40;;;;;;5087007;28;20248;-74
2021/06/30 03:40:17;;;;;;;10.25;8.73;;;22.00;87.30;;;;;;5063641;28;20234;-74
2021/06/30 03:42:43;;;;;;;8.88;8.00;;;22.00;87.80;;;;;;5063139;28;20198;-74
2021/06/30 03:45:09;;;;;;;9.30;8.30;;;22.00;87.30;;;;;;5054261;28;20247;-75
2021/06/30 03:47:35;;;;;;;10.13;7.70;;;22.00;87.20;;;;;;5062228;28;20284;-75
2021/06/30 03:50:01;;;;;;;9.48;8.15;;;22.00;87.10;;;;;;5055439;28;20175;-74
2021/06/30 03:52:26;;;;;;;10.10;8.70;;;22.00;87.20;;;;;;5062495;28;20708;-74
2021/06/30 03:54:55;;;;;;;13.50;8.15;;;22.00;87.30;;;;;;5061694;28;20197;-74
2021/06/30 03:57:21;;;;;;;10.35;8.85;;;22.00;87.40;;;;;;5062566;28;20210;-74
2021/06/30 03:59:47;;;;;;;11.43;8.82;;;22.10;87.20;;;;;;5061043;28;20767;-75
2021/06/30 04:02:12;;;;;;;9.68;8.73;;;22.10;87.40;;;;;;5061522;28;20183;-75
2021/06/30 04:04:38;;;;;;;9.68;8.32;;;22.10;87.30;;;;;;5065150;28;20179;-75
2021/06/30 04:07:04;;;;;;;9.32;8.27;;;22.20;87.40;;;;;;5065121;28;20223;-75
2021/06/30 04:09:30;;;;;;;10.43;8.70;;;22.20;87.20;;;;;;5064307;28;20182;-75
2021/06/30 04:11:56;;;;;;;9.25;8.43;;;22.20;87.00;;;;;;5061134;28;20187;-76
2021/06/30 04:14:22;;;;;;;11.90;8.55;;;22.30;86.80;;;;;;5060698;28;20194;-75
2021/06/30 04:16:48;;;;;;;9.15;8.35;;;22.30;86.70;;;;;;5064518;28;20190;-75
2021/06/30 04:19:14;;;;;;;9.95;9.02;;;22.30;86.70;;;;;;5066603;28;20167;-75
2021/06/30 04:21:39;;;;;;;11.18;8.40;;;22.40;86.70;;;;;;5065089;28;20186;-75
2021/06/30 04:24:08;;;;;;;9.23;8.32;;;22.40;86.70;;;;;;5065092;28;20183;-75
2021/06/30 04:26:35;;;;;;;9.90;9.00;;;22.40;86.60;;;;;;5065964;28;20206;-75
2021/06/30 04:29:02;;;;;;;9.57;8.68;;;22.50;86.60;;;;;;5065064;28;20182;-75
2021/06/30 04:31:29;;;;;;;12.48;9.32;;;22.50;86.50;;;;;;5064684;28;20175;-75
2021/06/30 04:33:55;;;;;;;13.80;8.88;;;22.60;86.50;;;;;;5064384;28;20183;-75
2021/06/30 04:36:21;;;;;;;9.40;8.15;;;22.60;86.70;;;;;;5066427;28;20369;-74
2021/06/30 04:38:47;;;;;;;8.80;7.90;;;22.60;86.30;;;;;;5064455;28;20295;-76
2021/06/30 04:41:13;;;;;;;12.60;8.48;;;22.70;86.10;;;;;;5061839;28;20619;-76
2021/06/30 04:43:39;;;;;;;13.02;8.18;;;22.70;86.20;;;;;;5063788;28;20183;-76
2021/06/30 04:46:06;;;;;;;8.40;7.68;;;22.80;86.20;;;;;;5063414;28;20232;-76
2021/06/30 04:48:32;;;;;;;8.90;8.00;;;22.80;85.80;;;;;;5065250;28;20369;-76
2021/06/30 04:50:58;;;;;;;9.45;7.32;;;22.90;85.80;;;;;;5067420;28;20183;-77
2021/06/30 04:53:23;;;;;;;9.50;8.23;;;22.90;85.50;;;;;;5065023;28;20190;-76
2021/06/30 04:55:49;;;;;;;11.05;7.95;;;23.00;85.50;;;;;;5058988;28;20623;-76
2021/06/30 04:58:15;;;;;;;9.00;8.20;;;23.00;85.70;;;;;;5066102;28;20182;-75
2021/06/30 05:00:41;;;;;;;11.57;9.27;;;23.10;85.50;;;;;;5066635;28;20190;-76
2021/06/30 05:03:07;;;;;;;10.27;9.23;;;23.10;85.30;;;;;;5065094;28;20252;-75
2021/06/30 05:05:32;;;;;;;10.02;7.97;;;23.20;85.50;;;;;;5065674;28;20187;-75
2021/06/30 05:07:58;;;;;;;11.98;8.88;;;23.20;85.50;;;;;;5062217;28;20218;-76
2021/06/30 05:10:25;;;;;;;10.07;9.05;;;23.30;85.80;;;;;;5062729;28;20179;-75
2021/06/30 05:12:50;;;;;;;11.98;9.50;;;23.30;85.80;;;;;;5063088;28;20573;-77
2021/06/30 05:15:16;;;;;;;12.32;10.60;;;23.40;85.60;;;;;;5067018;28;20205;-76
2021/06/30 05:17:42;;;;;;;11.10;9.93;;;23.40;85.80;;;;;;5053885;28;20218;-78
2021/06/30 05:20:08;;;;;;;11.00;9.35;;;23.40;85.60;;;;;;5069204;28;20216;-75
2021/06/30 05:22:34;;;;;;;12.65;9.23;;;23.50;85.90;;;;;;5065053;28;20258;-77
2021/06/30 05:24:59;;;;;;;13.30;10.95;;;23.50;85.50;;;;;;5071419;28;20217;-78
2021/06/30 05:27:25;;;;;;;11.57;10.48;;;23.60;85.70;;;;;;5079260;28;20215;-77
2021/06/30 05:29:51;;;;;;;11.18;9.93;;;23.60;85.40;;;;;;5069697;28;20234;-79
2021/06/30 05:32:16;;;;;;;17.45;9.93;;;23.70;85.20;;;;;;5073659;28;20206;-77
2021/06/30 05:34:42;;;;;;;14.43;11.18;;;23.80;85.20;;;;;;5068505;28;20211;-81
2021/06/30 05:37:08;;;;;;;14.55;9.95;;;23.80;85.20;;;;;;5080207;28;20193;-80
2021/06/30 05:39:33;;;;;;;10.95;9.85;;;23.90;85.00;;;;;;5070718;28;20217;-78
2021/06/30 05:41:59;;;;;;;11.13;9.95;;;23.90;84.90;;;;;;5070668;28;20559;-77
2021/06/30 05:44:25;;;;;;;12.75;10.30;;;23.90;84.70;;;;;;5077229;28;20174;-79
2021/06/30 05:46:51;;;;;;;11.13;10.05;;;24.00;84.50;;;;;;5090223;28;20221;-75
2021/06/30 05:49:17;;;;;;;14.68;10.68;;;24.00;84.60;;;;;;5069843;28;20171;-79
2021/06/30 05:51:43;;;;;;;13.73;10.75;;;24.00;84.40;;;;;;5073273;28;20187;-80
2021/06/30 05:54:12;;;;;;;12.25;9.68;;;24.10;84.20;;;;;;5064086;28;20187;-81
2021/06/30 05:56:38;;;;;;;10.63;9.60;;;24.10;84.00;;;;;;5070537;28;20183;-81
2021/06/30 05:59:04;;;;;;;14.77;10.05;;;24.20;84.10;;;;;;5063135;28;20179;-82
2021/06/30 06:01:31;;;;;;;15.00;10.38;;;24.20;84.30;;;;;;5069473;28;20179;-78
2021/06/30 06:03:56;;;;;;;14.25;10.70;;;24.30;84.10;;;;;;5064482;28;20228;-78
2021/06/30 06:06:22;;;;;;;16.17;10.75;;;24.30;84.00;;;;;;5069662;28;20175;-78
2021/06/30 06:08:48;;;;;;;17.08;11.73;;;24.30;84.00;;;;;;5068353;28;20223;-78
2021/06/30 06:11:14;;;;;;;13.02;10.98;;;24.40;83.90;;;;;;5068222;28;20183;-78
2021/06/30 06:13:41;;;;;;;14.15;10.48;;;24.40;83.90;;;;;;5063064;28;20179;-78
2021/06/30 06:16:08;;;;;;;13.05;10.73;;;24.50;83.70;;;;;;5067666;28;20195;-78
2021/06/30 06:18:33;;;;;;;15.45;9.88;;;24.60;83.70;;;;;;5069371;28;20209;-78
2021/06/30 06:21:00;;;;;;;16.02;10.27;;;24.60;83.70;;;;;;5085381;28;20190;-78
2021/06/30 06:23:26;;;;;;;15.13;10.25;;;24.70;83.40;;;;;;5079211;28;20336;-78
2021/06/30 06:25:51;;;;;;;13.88;10.25;;;24.80;83.70;;;;;;5071071;28;20250;-78
2021/06/30 06:28:18;;;;;;;12.38;9.98;;;24.80;83.10;;;;;;5072305;28;20207;-77
2021/06/30 06:30:47;;;;;;;13.10;10.57;;;24.90;83.10;;;;;;5069839;28;20183;-77
2021/06/30 06:33:13;;;;;;;11.63;10.27;;;24.90;83.00;;;;;;5069142;28;20572;-79
2021/06/30 06:35:38;;;;;;;14.02;10.13;;;25.00;82.90;;;;;;5069916;28;20204;-78
2021/06/30 06:38:04;;;;;;;11.93;9.63;;;25.00;82.70;;;;;;5071188;28;20254;-78
2021/06/30 06:40:29;;;;;;;10.80;9.63;;;25.10;82.00;;;;;;5071253;28;20679;-78
2021/06/30 06:42:55;;;;;;;10.02;9.02;;;25.10;82.10;;;;;;5070642;28;20170;-78
2021/06/30 06:45:21;;;;;;;13.45;9.95;;;25.20;82.30;;;;;;5070309;28;20585;-78
2021/06/30 06:47:47;;;;;;;12.00;9.32;;;25.30;82.30;;;;;;5070288;28;20750;-79
2021/06/30 06:50:12;;;;;;;13.10;9.40;;;25.30;81.60;;;;;;5068849;28;20567;-77
2021/06/30 06:52:38;;;;;;;11.75;9.77;;;25.40;81.10;;;;;;5069022;28;20171;-77
2021/06/30 06:55:09;;;;;;;11.38;9.40;;;25.40;81.20;;;;;;5067672;28;20289;-76
2021/06/30 06:57:35;;;;;;;10.13;9.13;;;25.40;81.00;;;;;;5063303;28;20186;-77
2021/06/30 07:00:03;;;;;;;9.50;8.70;;;25.50;80.80;;;;;;5068038;28;20835;-77
2021/06/30 07:02:29;;;;;;;9.18;8.27;;;25.50;81.10;;;;;;5066690;28;20189;-78
2021/06/30 07:04:54;;;;;;;20.33;9.00;;;25.60;81.10;;;;;;5063953;28;20178;-78
2021/06/30 07:07:20;;;;;;;9.70;8.95;;;25.70;81.20;;;;;;5063496;28;20254;-78
2021/06/30 07:09:46;;;;;;;13.63;8.27;;;25.70;81.10;;;;;;5058943;28;20175;-76
2021/06/30 07:12:11;;;;;;;10.43;8.85;;;25.80;80.70;;;;;;5058366;28;20729;-75
2021/06/30 07:14:37;;;;;;;8.30;7.60;;;25.90;80.30;;;;;;5064203;28;20195;-77
2021/06/30 07:17:03;;;;;;;9.23;7.95;;;26.00;80.00;;;;;;5065342;28;20229;-77
2021/06/30 07:19:28;;;;;;;8.40;7.68;;;26.10;80.00;;;;;;5054331;28;20733;-77
2021/06/30 07:21:54;;;;;;;8.10;7.47;;;26.10;79.40;;;;;;5064178;28;20644;-79
2021/06/30 07:24:20;;;;;;;9.02;8.20;;;26.20;79.70;;;;;;5066788;28;20183;-78
2021/06/30 07:26:45;;;;;;;8.57;7.90;;;26.30;79.80;;;;;;5062273;28;20186;-80
2021/06/30 07:29:11;;;;;;;13.48;8.52;;;26.40;79.80;;;;;;5075866;28;20277;-77
2021/06/30 07:31:37;;;;;;;13.30;8.70;;;26.50;79.90;;;;;;5080807;28;20750;-78
2021/06/30 07:34:03;;;;;;;10.27;8.75;;;26.50;79.20;;;;;;5074554;28;20186;-77
2021/06/30 07:36:29;;;;;;;8.65;7.85;;;26.60;78.90;;;;;;5071134;28;20713;-77
2021/06/30 07:38:55;;;;;;;9.20;8.27;;;26.70;79.20;;;;;;5080110;28;20183;-77
2021/06/30 07:41:21;;;;;;;9.13;8.30;;;26.80;78.70;;;;;;5073129;28;20874;-77
2021/06/30 07:43:48;;;;;;;14.27;8.95;;;26.80;78.70;;;;;;5061834;28;20258;-77
2021/06/30 07:46:14;;;;;;;9.88;8.77;;;26.90;78.50;;;;;;5066071;28;20183;-77
2021/06/30 07:48:40;;;;;;;9.57;8.68;;;27.00;78.40;;;;;;5063594;28;20224;-78
2021/06/30 07:51:05;;;;;;;10.00;9.00;;;27.10;78.40;;;;;;5067061;28;20179;-77
2021/06/30 07:53:31;;;;;;;9.88;8.90;;;27.20;78.50;;;;;;5064872;28;20182;-79
2021/06/30 07:55:57;;;;;;;11.15;8.88;;;27.20;78.40;;;;;;5064121;28;20180;-78
2021/06/30 07:58:23;;;;;;;12.63;8.85;;;27.30;78.30;;;;;;5069784;28;20179;-78
2021/06/30 08:00:49;;;;;;;9.98;9.07;;;27.40;77.20;;;;;;5066583;28;20240;-76
2021/06/30 08:03:15;;;;;;;8.50;7.70;;;27.40;77.10;;;;;;5068549;28;20663;-77
2021/06/30 08:05:41;;;;;;;9.93;8.48;;;27.50;76.60;;;;;;5068599;28;20578;-77
2021/06/30 08:08:06;;;;;;;11.43;7.68;;;27.60;76.90;;;;;;5062939;28;20215;-78
2021/06/30 08:10:32;;;;;;;13.48;7.60;;;27.70;75.90;;;;;;5062039;28;20714;-77
2021/06/30 08:12:58;;;;;;;10.50;8.45;;;27.70;76.50;;;;;;5059305;28;20190;-77
2021/06/30 08:15:24;;;;;;;9.73;8.73;;;27.80;76.10;;;;;;5067489;28;20198;-78
2021/06/30 08:17:50;;;;;;;8.65;7.95;;;27.80;76.40;;;;;;5067078;28;20238;-78
2021/06/30 08:20:16;;;;;;;11.13;8.50;;;27.90;76.40;;;;;;5067288;28;20207;-77
2021/06/30 08:22:42;;;;;;;9.32;8.35;;;28.00;76.20;;;;;;5065197;28;20333;-76
2021/06/30 08:25:10;;;;;;;10.85;8.48;;;28.10;76.30;;;;;;5067653;28;20606;-76
2021/06/30 08:27:37;;;;;;;12.55;8.52;;;28.10;76.20;;;;;;5055537;28;20768;-76
2021/06/30 08:30:07;;;;;;;9.18;8.38;;;28.20;75.80;;;;;;5067091;28;20190;-76
2021/06/30 08:32:33;;;;;;;10.65;8.70;;;28.30;75.20;;;;;;5067590;28;20182;-76
2021/06/30 08:34:59;;;;;;;10.95;9.50;;;28.30;75.70;;;;;;5067614;28;20183;-77
2021/06/30 08:37:26;;;;;;;10.18;8.95;;;28.40;74.50;;;;;;5063050;28;20195;-77
2021/06/30 08:39:52;;;;;;;9.23;8.35;;;28.40;74.20;;;;;;5063615;28;20178;-76
2021/06/30 08:42:18;;;;;;;8.68;7.88;;;28.40;74.30;;;;;;5068512;28;20288;-77
2021/06/30 08:44:45;;;;;;;9.00;8.40;;;28.50;74.90;;;;;;5070240;28;20198;-77
2021/06/30 08:47:11;;;;;;;9.38;8.48;;;28.50;75.10;;;;;;5070319;28;20206;-76
2021/06/30 08:49:43;;;;;;;8.48;7.78;;;28.60;74.90;;;;;;5070276;28;20174;-76
2021/06/30 08:52:11;;;;;;;8.70;7.95;;;28.70;75.30;;;;;;5059730;28;20191;-77
2021/06/30 08:54:41;;;;;;;9.23;8.52;;;28.80;75.00;;;;;;5067040;28;20179;-77
2021/06/30 08:57:08;;;;;;;8.95;8.10;;;28.90;74.60;;;;;;5062003;28;20214;-77
2021/06/30 08:59:34;;;;;;;8.77;8.00;;;29.00;74.80;;;;;;5073607;28;20269;-78
2021/06/30 09:02:00;;;;;;;9.02;8.25;;;29.10;75.00;;;;;;5061739;28;20241;-78
2021/06/30 09:04:26;;;;;;;10.82;8.57;;;29.20;75.00;;;;;;5073198;28;20640;-77
2021/06/30 09:06:51;;;;;;;9.13;8.07;;;29.40;74.50;;;;;;5068075;28;20275;-77
2021/06/30 09:09:17;;;;;;;9.57;8.57;;;29.40;74.10;;;;;;5073107;28;20625;-77
2021/06/30 09:11:52;;;;;;;8.85;8.00;;;29.60;73.50;;;;;;5061289;28;20179;-77
2021/06/30 09:14:22;;;;;;;10.32;9.30;;;29.60;73.80;;;;;;5067909;28;20190;-77
2021/06/30 09:19:54;;;;;;;9.82;9.02;;;29.90;73.00;;;;;;5069565;28;20694;-78
2021/06/30 09:22:26;;;;;;;10.73;9.10;;;30.00;72.80;;;;;;5065069;28;20182;-78
2021/06/30 09:24:52;;;;;;;11.88;8.85;;;30.10;72.90;;;;;;5069781;28;20246;-78
2021/06/30 09:27:19;;;;;;;13.35;8.18;;;30.20;72.60;;;;;;5061398;28;20227;-75
2021/06/30 09:29:46;;;;;;;9.57;8.68;;;30.30;71.40;;;;;;5053553;28;20267;-78
2021/06/30 09:32:14;;;;;;;11.65;9.15;;;30.40;71.10;;;;;;5056641;28;20188;-77
2021/06/30 09:34:40;;;;;;;11.38;9.15;;;30.40;71.50;;;;;;5057980;28;20681;-75
2021/06/30 09:37:08;;;;;;;9.57;8.35;;;30.50;71.20;;;;;;5058257;28;20266;-78
2021/06/30 09:39:55;;;;;;;9.55;8.52;;;30.60;71.00;;;;;;5068649;28;20186;-76
2021/06/30 09:42:29;;;;;;;11.48;8.73;;;30.80;70.30;;;;;;5072789;28;20566;-76
2021/06/30 09:45:18;;;;;;;10.10;9.13;;;30.90;71.40;;;;;;5068246;28;20186;-77
2021/06/30 09:47:47;;;;;;;10.23;9.38;;;31.10;71.00;;;;;;5071574;28;20215;-77
2021/06/30 09:50:14;;;;;;;12.43;9.30;;;31.20;71.20;;;;;;5073811;28;20708;-77
2021/06/30 09:52:42;;;;;;;9.73;8.90;;;31.30;71.30;;;;;;5073919;28;20664;-76
2021/06/30 09:55:31;;;;;;;9.18;8.48;;;31.40;69.60;;;;;;5064373;28;20190;-76
2021/06/30 09:57:59;;;;;;;12.18;9.98;;;31.50;70.50;;;;;;5068632;28;20174;-77
2021/06/30 10:00:28;;;;;;;14.00;9.90;;;31.70;70.40;;;;;;5070468;28;20214;-77
2021/06/30 10:02:55;;;;;;;11.02;9.40;;;31.80;69.80;;;;;;5074448;28;20758;-77
2021/06/30 10:05:34;;;;;;;8.95;8.02;;;32.00;68.80;;;;;;5065867;28;20617;-77
2021/06/30 10:08:12;;;;;;;9.07;8.38;;;32.20;67.50;;;;;;5069703;28;20220;-76
2021/06/30 10:10:38;;;;;;;9.82;9.07;;;32.40;67.30;;;;;;5078989;28;20245;-76
2021/06/30 10:13:03;;;;;;;10.57;9.63;;;32.50;67.00;;;;;;5069113;28;20207;-76
2021/06/30 10:15:31;;;;;;;10.93;8.77;;;32.70;67.30;;;;;;5068253;28;20238;-77
2021/06/30 10:17:58;;;;;;;9.85;8.80;;;32.90;67.50;;;;;;5067395;28;20679;-77
2021/06/30 10:20:24;;;;;;;13.68;9.55;;;33.10;67.80;;;;;;5074085;28;20180;-77
2021/06/30 10:22:50;;;;;;;10.82;9.35;;;33.30;66.50;;;;;;5062488;28;20191;-77
2021/06/30 10:25:16;;;;;;;10.57;9.52;;;33.40;66.40;;;;;;5070624;28;20205;-78
2021/06/30 10:27:42;;;;;;;10.52;9.05;;;33.60;65.90;;;;;;5085554;28;20209;-78
2021/06/30 10:30:08;;;;;;;9.80;8.80;;;33.70;64.50;;;;;;5083661;28;20730;-78
2021/06/30 10:32:36;;;;;;;10.75;9.73;;;33.80;65.20;;;;;;5074611;28;20247;-78
2021/06/30 10:35:04;;;;;;;10.82;8.82;;;33.90;64.20;;;;;;5075671;28;20530;-78
2021/06/30 10:37:32;;;;;;;12.55;9.07;;;34.10;65.30;;;;;;5090149;28;20189;-77
2021/06/30 10:40:10;;;;;;;10.45;9.38;;;34.40;63.20;;;;;;5068752;28;20174;-76
2021/06/30 10:42:38;;;;;;;9.55;8.75;;;34.70;64.30;;;;;;5087875;28;20186;-77
2021/06/30 10:45:12;;;;;;;10.55;9.13;;;35.10;64.30;;;;;;5093945;28;20192;-77
2021/06/30 10:48:05;;;;;;;11.95;8.55;;;35.50;61.90;;;;;;5080989;28;20210;-77
2021/06/30 10:50:42;;;;;;;12.77;8.90;;;36.10;61.70;;;;;;5084206;28;20183;-77
2021/06/30 10:53:23;;;;;;;11.82;8.75;;;36.70;60.10;;;;;;5091130;28;20257;-78
2021/06/30 10:55:51;;;;;;;9.02;8.40;;;37.20;60.00;;;;;;5093560;28;20186;-76
2021/06/30 10:58:18;;;;;;;9.38;8.43;;;37.90;58.60;;;;;;5085545;28;20257;-76
2021/06/30 11:01:02;;;;;;;9.80;9.02;;;38.50;58.10;;;;;;5085393;28;20201;-77
2021/06/30 11:03:29;;;;;;;8.98;8.30;;;39.00;58.00;;;;;;5084047;28;20158;-77
2021/06/30 11:06:09;;;;;;;10.52;8.63;;;39.40;57.50;;;;;;5093549;28;20182;-78
2021/06/30 11:08:46;;;;;;;8.50;7.90;;;39.90;56.60;;;;;;5084353;28;20248;-78
2021/06/30 11:11:17;;;;;;;8.65;7.82;;;40.50;55.90;;;;;;5092753;28;20187;-78
2021/06/30 11:14:00;;;;;;;10.20;7.90;;;41.00;54.90;;;;;;5078574;28;20197;-77
2021/06/30 11:16:44;;;;;;;8.38;7.57;;;41.30;53.50;;;;;;5080425;28;20208;-78
2021/06/30 11:19:16;;;;;;;14.43;7.40;;;41.30;53.80;;;;;;5081886;28;20633;-76
2021/06/30 11:21:56;;;;;;;7.75;7.13;;;41.20;55.30;;;;;;5077905;28;20236;-77
2021/06/30 11:24:43;;;;;;;8.60;7.90;;;41.30;54.80;;;;;;5075765;28;20252;-77
2021/06/30 11:30:00;;;;;;;7.60;6.80;;;41.80;54.70;;;;;;5082149;28;20182;-78
2021/06/30 11:32:32;;;;;;;10.07;7.53;;;42.10;53.50;;;;;;5081388;28;20188;-78
2021/06/30 11:34:59;;;;;;;7.57;6.95;;;42.20;52.40;;;;;;5092552;28;20178;-78
2021/06/30 11:37:28;;;;;;;8.13;7.53;;;42.20;54.20;;;;;;5073918;28;20178;-78
2021/06/30 11:39:57;;;;;;;11.07;7.32;;;42.10;54.20;;;;;;5091588;28;20215;-78
2021/06/30 11:42:31;;;;;;;7.00;6.47;;;41.90;54.10;;;;;;5086817;28;20175;-78
2021/06/30 11:44:57;;;;;;;6.78;6.43;;;41.70;54.60;;;;;;5096773;28;20234;-78
2021/06/30 11:47:23;;;;;;;9.32;6.82;;;41.70;55.80;;;;;;5090124;28;20226;-78
2021/06/30 11:49:49;;;;;;;8.23;6.72;;;41.80;55.60;;;;;;5087844;28;20180;-78
2021/06/30 11:52:15;;;;;;;7.25;6.75;;;42.10;54.00;;;;;;5077125;28;20187;-78
2021/06/30 11:54:41;;;;;;;6.80;6.47;;;42.40;54.60;;;;;;5093310;28;20175;-78
2021/06/30 11:57:07;;;;;;;7.70;7.18;;;42.70;54.20;;;;;;5093333;28;20186;-77
2021/06/30 11:59:36;;;;;;;7.63;6.97;;;42.90;52.60;;;;;;5095692;28;20181;-78
2021/06/30 12:02:02;;;;;;;10.30;7.28;;;43.00;50.70;;;;;;5087269;28;20193;-78
2021/06/30 12:04:28;;;;;;;7.63;6.65;;;43.30;52.80;;;;;;5088101;28;20732;-78
2021/06/30 12:07:05;;;;;;;6.95;6.25;;;43.70;52.00;;;;;;5075254;28;20210;-78
2021/06/30 12:09:33;;;;;;;7.53;6.75;;;44.20;49.80;;;;;;5068027;28;20241;-78
2021/06/30 12:12:07;;;;;;;6.55;6.10;;;44.70;49.60;;;;;;5078653;28;20187;-78
2021/06/30 12:14:46;;;;;;;7.00;6.45;;;45.30;49.40;;;;;;5085751;28;20194;-78
2021/06/30 12:17:15;;;;;;;6.90;6.20;;;45.30;48.60;;;;;;5087585;28;20181;-78
2021/06/30 12:19:45;;;;;;;6.55;6.15;;;45.20;49.60;;;;;;5082401;28;20179;-78
2021/06/30 12:22:20;;;;;;;7.40;6.50;;;45.30;49.90;;;;;;5086812;28;20188;-78
2021/06/30 12:24:50;;;;;;;9.35;6.50;;;45.30;49.10;;;;;;5090737;28;20178;-78
2021/06/30 12:27:18;;;;;;;6.13;5.82;;;45.20;49.00;;;;;;5093770;28;20202;-78
2021/06/30 12:29:44;;;;;;;7.55;6.00;;;44.90;49.10;;;;;;5091619;28;20174;-77
2021/06/30 12:32:14;;;;;;;6.75;6.22;;;45.00;50.20;;;;;;5089411;28;20185;-78
2021/06/30 12:34:42;;;;;;;6.13;5.82;;;45.10;49.20;;;;;;5089035;28;20301;-78
2021/06/30 12:37:09;;;;;;;6.47;5.50;;;45.10;48.90;;;;;;5086487;28;20230;-78
2021/06/30 12:39:36;;;;;;;7.95;6.03;;;45.20;48.10;;;;;;5076589;28;20171;-77
2021/06/30 12:42:06;;;;;;;6.82;6.00;;;45.30;48.90;;;;;;5101077;28;20167;-78
2021/06/30 12:44:59;;;;;;;16.17;6.50;;;45.10;48.20;;;;;;5096962;28;20576;-78
2021/06/30 12:47:26;;;;;;;7.05;6.45;;;44.70;46.30;;;;;;5079885;28;20301;-78